createdAt,value
2018-05-18T00:01:12.358Z,99868.25
2018-05-18T00:03:39.918Z,99868.25
2018-05-18T00:06:07.474Z,99866.16
2018-05-18T00:08:35.139Z,99860.11
2018-05-18T00:11:02.776Z,99874.50
2018-05-18T00:13:30.396Z,99865.43
2018-05-18T00:15:57.964Z,99874.30
2018-05-18T00:18:25.520Z,99874.30
2018-05-18T00:20:53.137Z,99881.00
2018-05-18T00:23:20.701Z,99877.34
2018-05-18T00:25:48.269Z,99876.42
2018-05-18T00:28:15.824Z,99880.16
2018-05-18T00:30:43.411Z,99879.54
2018-05-18T00:33:10.968Z,99879.86
2018-05-18T00:35:38.584Z,99880.57
2018-05-18T00:38:06.146Z,99875.89
2018-05-18T00:40:33.772Z,99869.53
2018-05-18T00:43:01.341Z,99871.41
2018-05-18T00:45:29.171Z,99875.67
2018-05-18T00:47:56.793Z,99879.74
2018-05-18T00:50:24.399Z,99877.86
2018-05-18T00:52:51.935Z,99872.22
2018-05-18T00:55:31.450Z,99871.00
2018-05-18T00:57:59.021Z,99865.88
2018-05-18T01:00:26.590Z,99869.84
2018-05-18T01:02:54.208Z,99869.52
2018-05-18T01:05:21.832Z,99870.87
2018-05-18T01:07:49.471Z,99875.38
2018-05-18T01:10:17.104Z,99875.05
2018-05-18T01:12:44.641Z,99867.95
2018-05-18T01:15:12.208Z,99868.90
2018-05-18T01:17:39.829Z,99869.63
2018-05-18T01:20:07.401Z,99861.92
2018-05-18T01:22:35.054Z,99859.82
2018-05-18T01:25:02.678Z,99868.07
2018-05-18T01:27:30.258Z,99871.59
2018-05-18T01:29:57.877Z,99875.57
2018-05-18T01:32:25.520Z,99876.31
2018-05-18T01:34:53.152Z,99873.27
2018-05-18T01:37:20.723Z,99873.06
2018-05-18T01:39:48.269Z,99866.39
2018-05-18T01:42:15.912Z,99864.08
2018-05-18T01:44:43.533Z,99861.08
2018-05-18T01:47:11.158Z,99862.81
2018-05-18T01:49:38.739Z,99863.33
2018-05-18T01:52:06.323Z,99868.66
2018-05-18T01:54:33.901Z,99872.19
2018-05-18T01:57:01.533Z,99862.48
2018-05-18T01:59:29.224Z,99865.00
2018-05-18T02:01:56.781Z,99866.97
2018-05-18T02:04:24.372Z,99866.35
2018-05-18T02:06:51.933Z,99864.48
2018-05-18T02:09:19.579Z,99857.72
2018-05-18T02:11:47.143Z,99860.80
2018-05-18T02:14:14.746Z,99861.14
2018-05-18T02:16:42.308Z,99864.27
2018-05-18T02:19:09.937Z,99864.27
2018-05-18T02:21:37.508Z,99861.36
2018-05-18T02:24:05.064Z,99851.89
2018-05-18T02:26:32.637Z,99846.77
2018-05-18T02:29:00.205Z,99846.38
2018-05-18T02:31:27.922Z,99852.64
2018-05-18T02:33:55.550Z,99858.77
2018-05-18T02:36:23.113Z,99857.84
2018-05-18T02:38:50.741Z,99857.02
2018-05-18T02:41:18.301Z,99861.49
2018-05-18T02:43:45.872Z,99861.17
2018-05-18T02:46:13.502Z,99862.13
2018-05-18T02:48:41.136Z,99869.30
2018-05-18T02:51:08.696Z,99877.63
2018-05-18T02:53:36.313Z,99883.67
2018-05-18T02:56:03.950Z,99884.17
2018-05-18T02:58:31.516Z,99883.57
2018-05-18T03:00:59.092Z,99878.33
2018-05-18T03:03:26.730Z,99882.06
2018-05-18T03:05:54.430Z,99880.70
2018-05-18T03:08:21.996Z,99883.51
2018-05-18T03:10:49.633Z,99874.33
2018-05-18T03:13:17.209Z,99882.14
2018-05-18T03:15:44.854Z,99878.52
2018-05-18T03:18:12.433Z,99883.22
2018-05-18T03:20:40.061Z,99884.30
2018-05-18T03:23:07.632Z,99887.75
2018-05-18T03:25:35.193Z,99891.91
2018-05-18T03:28:02.871Z,99896.30
2018-05-18T03:30:30.436Z,99899.19
2018-05-18T03:32:58.069Z,99895.47
2018-05-18T03:35:25.705Z,99895.37
2018-05-18T03:37:53.251Z,99895.68
2018-05-18T03:40:20.825Z,99898.38
2018-05-18T03:42:48.403Z,99895.37
2018-05-18T03:45:15.976Z,99893.19
2018-05-18T03:47:43.597Z,99892.45
2018-05-18T03:50:11.220Z,99899.95
2018-05-18T03:52:38.792Z,99899.34
2018-05-18T03:55:06.364Z,99900.48
2018-05-18T03:57:33.943Z,99899.05
2018-05-18T04:00:01.569Z,99892.84
2018-05-18T04:02:40.850Z,99895.83
2018-05-18T04:05:20.114Z,99888.70
2018-05-18T04:07:59.509Z,99888.95
2018-05-18T04:10:27.084Z,99889.09
2018-05-18T04:12:54.652Z,99889.94
2018-05-18T04:15:22.230Z,99881.72
2018-05-18T04:17:49.797Z,99881.44
2018-05-18T04:20:17.373Z,99881.39
2018-05-18T04:22:44.948Z,99879.42
2018-05-18T04:25:12.517Z,99883.34
2018-05-18T04:27:40.080Z,99884.34
2018-05-18T04:30:07.792Z,99887.37
2018-05-18T04:32:35.302Z,99899.91
2018-05-18T04:35:02.865Z,99893.75
2018-05-18T04:37:30.434Z,99887.71
2018-05-18T04:39:58.002Z,99889.02
2018-05-18T04:42:25.597Z,99889.44
2018-05-18T04:44:53.171Z,99887.06
2018-05-18T04:47:20.764Z,99887.28
2018-05-18T04:49:48.459Z,99876.78
2018-05-18T04:52:16.029Z,99876.60
2018-05-18T04:54:43.650Z,99883.89
2018-05-18T04:57:11.252Z,99888.64
2018-05-18T04:59:38.803Z,99883.56
2018-05-18T05:02:06.357Z,99881.63
2018-05-18T05:04:33.974Z,99882.98
2018-05-18T05:07:01.590Z,99883.23
2018-05-18T05:09:29.152Z,99885.91
2018-05-18T05:11:56.783Z,99885.19
2018-05-18T05:14:24.354Z,99883.80
2018-05-18T05:16:51.977Z,99891.32
2018-05-18T05:19:19.537Z,99890.23
2018-05-18T05:21:47.097Z,99900.36
2018-05-18T05:24:14.671Z,99902.13
2018-05-18T05:26:42.237Z,99903.23
2018-05-18T05:29:09.913Z,99904.66
2018-05-18T05:31:37.474Z,99903.77
2018-05-18T05:34:05.017Z,99900.72
2018-05-18T05:36:32.703Z,99900.45
2018-05-18T05:39:00.256Z,99895.31
2018-05-18T05:41:27.819Z,99889.80
2018-05-18T05:43:57.260Z,99896.13
2018-05-18T05:46:24.876Z,99890.57
2018-05-18T05:48:52.699Z,99891.18
2018-05-18T05:51:20.257Z,99891.52
2018-05-18T05:53:47.862Z,99891.85
2018-05-18T05:56:15.472Z,99893.02
2018-05-18T05:58:43.093Z,99889.98
2018-05-18T06:01:10.652Z,99887.13
2018-05-18T06:03:38.216Z,99884.81
2018-05-18T06:06:05.773Z,99881.94
2018-05-18T06:08:33.315Z,99886.47
2018-05-18T06:11:00.917Z,99885.87
2018-05-18T06:13:28.492Z,99891.45
2018-05-18T06:15:56.111Z,99884.13
2018-05-18T06:18:23.734Z,99888.39
2018-05-18T06:20:51.350Z,99891.91
2018-05-18T06:23:18.986Z,99891.70
2018-05-18T06:25:46.561Z,99889.14
2018-05-18T06:28:14.172Z,99888.75
2018-05-18T06:30:41.804Z,99898.20
2018-05-18T06:33:09.365Z,99895.98
2018-05-18T06:35:36.988Z,99899.27
2018-05-18T06:38:04.535Z,99899.58
2018-05-18T06:40:32.147Z,99905.35
2018-05-18T06:42:59.757Z,99896.00
2018-05-18T06:45:27.373Z,99893.99
2018-05-18T06:47:54.936Z,99890.36
2018-05-18T06:50:22.559Z,99887.72
2018-05-18T06:52:50.184Z,99890.30
2018-05-18T06:55:17.861Z,99889.38
2018-05-18T06:57:45.436Z,99886.46
2018-05-18T07:00:13.000Z,99892.12
2018-05-18T07:02:40.556Z,99887.37
2018-05-18T07:05:08.229Z,99885.52
2018-05-18T07:07:35.805Z,99884.78
2018-05-18T07:10:03.435Z,99882.88
2018-05-18T07:12:31.079Z,99887.77
2018-05-18T07:14:58.632Z,99883.09
2018-05-18T07:17:26.253Z,99882.18
2018-05-18T07:19:53.909Z,99883.00
2018-05-18T07:22:21.562Z,99884.55
2018-05-18T07:24:49.189Z,99887.63
2018-05-18T07:27:16.745Z,99881.73
2018-05-18T07:29:44.358Z,99880.62
2018-05-18T07:32:12.075Z,99880.56
2018-05-18T07:34:39.638Z,99885.03
2018-05-18T07:37:07.261Z,99887.47
2018-05-18T07:39:34.898Z,99886.37
2018-05-18T07:42:02.560Z,99891.78
2018-05-18T07:44:30.129Z,99883.12
2018-05-18T07:46:57.732Z,99888.41
2018-05-18T07:49:25.303Z,99890.01
2018-05-18T07:51:52.882Z,99895.30
2018-05-18T07:54:20.519Z,99893.92
2018-05-18T07:56:48.143Z,99900.64
2018-05-18T07:59:15.762Z,99895.27
2018-05-18T08:01:43.446Z,99895.38
2018-05-18T08:04:11.045Z,99885.81
2018-05-18T08:06:38.673Z,99891.45
2018-05-18T08:09:06.277Z,99890.31
2018-05-18T08:11:33.893Z,99885.14
2018-05-18T08:14:01.484Z,99882.20
2018-05-18T08:16:29.105Z,99883.66
2018-05-18T08:18:56.735Z,99884.67
2018-05-18T08:21:24.297Z,99879.24
2018-05-18T08:23:51.953Z,99880.63
2018-05-18T08:26:19.577Z,99876.90
2018-05-18T08:28:58.967Z,99879.09
2018-05-18T08:31:26.585Z,99880.20
2018-05-18T08:33:54.159Z,99881.11
2018-05-18T08:36:21.720Z,99886.73
2018-05-18T08:38:49.287Z,99888.45
2018-05-18T08:41:16.855Z,99886.83
2018-05-18T08:43:44.464Z,99884.97
2018-05-18T08:46:12.021Z,99883.17
2018-05-18T08:48:39.581Z,99881.91
2018-05-18T08:51:07.153Z,99883.80
2018-05-18T08:53:34.712Z,99884.81
2018-05-18T08:56:02.393Z,99883.09
2018-05-18T08:58:29.953Z,99887.08
2018-05-18T09:00:57.514Z,99871.28
2018-05-18T09:03:25.062Z,99872.13
2018-05-18T09:05:52.613Z,99877.02
2018-05-18T09:08:20.228Z,99857.72
2018-05-18T09:10:47.845Z,99856.67
2018-05-18T09:13:15.396Z,99848.76
2018-05-18T09:15:43.021Z,99861.97
2018-05-18T09:18:10.765Z,99860.88
2018-05-18T09:20:38.333Z,99861.98
2018-05-18T09:23:05.949Z,99865.09
2018-05-18T09:25:33.560Z,99859.77
2018-05-18T09:28:01.117Z,99856.62
2018-05-18T09:30:28.673Z,99844.18
2018-05-18T09:32:56.236Z,99853.73
2018-05-18T09:35:23.921Z,99853.50
2018-05-18T09:37:51.500Z,99853.86
2018-05-18T09:40:19.064Z,99853.65
2018-05-18T09:42:46.678Z,99856.83
2018-05-18T09:45:14.259Z,99853.77
2018-05-18T09:47:41.821Z,99856.53
2018-05-18T09:50:09.485Z,99855.25
2018-05-18T09:52:37.058Z,99857.42
2018-05-18T09:55:04.694Z,99857.37
2018-05-18T09:57:32.237Z,99853.77
2018-05-18T09:59:59.876Z,99841.16
2018-05-18T10:02:27.449Z,99852.88
2018-05-18T10:04:55.018Z,99844.00
2018-05-18T10:07:22.657Z,99838.66
2018-05-18T10:09:50.213Z,99832.02
2018-05-18T10:12:17.889Z,99832.23
2018-05-18T10:14:45.525Z,99824.44
2018-05-18T10:17:13.204Z,99828.46
2018-05-18T10:19:40.861Z,99818.30
2018-05-18T10:22:08.419Z,99821.48
2018-05-18T10:24:36.005Z,99818.30
2018-05-18T10:27:03.636Z,99817.42
2018-05-18T10:29:31.176Z,99815.28
2018-05-18T10:31:58.810Z,99811.23
2018-05-18T10:34:26.524Z,99812.07
2018-05-18T10:36:54.148Z,99804.28
2018-05-18T10:39:21.729Z,99797.52
2018-05-18T10:41:49.356Z,99791.70
2018-05-18T10:44:16.917Z,99786.91
2018-05-18T10:46:44.488Z,99795.27
2018-05-18T10:49:12.113Z,99791.83
2018-05-18T10:51:39.813Z,99794.34
2018-05-18T10:54:07.381Z,99790.78
2018-05-18T10:56:34.956Z,99786.32
2018-05-18T10:59:02.538Z,99785.84
2018-05-18T11:01:30.088Z,99780.58
2018-05-18T11:03:57.660Z,99779.97
2018-05-18T11:06:25.229Z,99777.43
2018-05-18T11:08:52.909Z,99772.74
2018-05-18T11:11:20.468Z,99765.95
2018-05-18T11:13:48.072Z,99762.23
2018-05-18T11:16:15.639Z,99755.91
2018-05-18T11:18:43.267Z,99751.82
2018-05-18T11:21:10.871Z,99754.02
2018-05-18T11:23:38.425Z,99748.82
2018-05-18T11:26:06.050Z,99748.05
2018-05-18T11:28:33.621Z,99751.20
2018-05-18T11:31:01.176Z,99753.68
2018-05-18T11:33:28.788Z,99745.16
2018-05-18T11:35:56.405Z,99736.20
2018-05-18T11:38:23.965Z,99741.80
2018-05-18T11:40:51.628Z,99742.24
2018-05-18T11:43:19.249Z,99745.89
2018-05-18T11:45:46.921Z,99732.73
2018-05-18T11:48:14.542Z,99732.61
2018-05-18T11:50:42.101Z,99732.66
2018-05-18T11:53:09.670Z,99726.48
2018-05-18T11:55:37.304Z,99721.34
2018-05-18T11:58:04.932Z,99714.69
2018-05-18T12:00:32.577Z,99715.05
2018-05-18T12:03:00.180Z,99709.97
2018-05-18T12:05:27.740Z,99711.14
2018-05-18T12:07:55.308Z,99705.59
2018-05-18T12:10:22.880Z,99704.81
2018-05-18T12:12:50.436Z,99701.81
2018-05-18T12:15:18.060Z,99701.16
2018-05-18T12:17:45.634Z,99698.16
2018-05-18T12:20:13.258Z,99690.99
2018-05-18T12:22:40.820Z,99688.52
2018-05-18T12:25:08.388Z,99682.18
2018-05-18T12:27:35.960Z,99679.22
2018-05-18T12:30:03.544Z,99682.48
2018-05-18T12:32:31.186Z,99677.91
2018-05-18T12:34:58.744Z,99673.17
2018-05-18T12:37:26.522Z,99670.33
2018-05-18T12:39:54.098Z,99662.08
2018-05-18T12:42:21.665Z,99660.00
2018-05-18T12:44:49.302Z,99656.97
2018-05-18T12:47:16.865Z,99649.82
2018-05-18T12:49:44.432Z,99640.10
2018-05-18T12:52:12.150Z,99641.86
2018-05-18T12:54:39.760Z,99645.59
2018-05-18T12:57:07.324Z,99644.22
2018-05-18T12:59:34.959Z,99639.86
2018-05-18T13:02:02.492Z,99644.55
2018-05-18T13:04:30.049Z,99638.78
2018-05-18T13:06:57.630Z,99631.48
2018-05-18T13:09:25.184Z,99642.38
2018-05-18T13:11:52.800Z,99645.40
2018-05-18T13:14:20.418Z,99636.55
2018-05-18T13:16:47.984Z,99637.23
2018-05-18T13:19:15.560Z,99631.09
2018-05-18T13:21:43.120Z,99634.66
2018-05-18T13:24:10.763Z,99632.30
2018-05-18T13:26:38.429Z,99629.89
2018-05-18T13:29:06.052Z,99627.15
2018-05-18T13:31:34.678Z,99616.52
2018-05-18T13:34:02.256Z,99613.41
2018-05-18T13:36:29.880Z,99604.48
2018-05-18T13:38:57.436Z,99610.30
2018-05-18T13:41:25.061Z,99611.09
2018-05-18T13:43:52.649Z,99604.25
2018-05-18T13:46:20.260Z,99609.67
2018-05-18T13:48:47.815Z,99606.09
2018-05-18T13:51:15.378Z,99599.66
2018-05-18T13:53:42.944Z,99597.37
2018-05-18T13:56:10.560Z,99585.97
2018-05-18T13:58:38.226Z,99591.48
2018-05-18T14:01:05.773Z,99590.31
2018-05-18T14:03:33.397Z,99593.41
2018-05-18T14:06:00.952Z,99588.13
2018-05-18T14:08:28.513Z,99579.52
2018-05-18T14:10:56.162Z,99583.69
2018-05-18T14:13:23.781Z,99583.44
2018-05-18T14:15:51.975Z,99580.26
2018-05-18T14:18:19.616Z,99585.58
2018-05-18T14:20:47.233Z,99570.20
2018-05-18T14:23:14.804Z,99568.34
2018-05-18T14:25:42.421Z,99564.87
2018-05-18T14:28:10.050Z,99567.16
2018-05-18T14:30:37.661Z,99572.56
2018-05-18T14:33:05.354Z,99574.51
2018-05-18T14:35:32.916Z,99578.89
2018-05-18T14:38:00.640Z,99584.34
2018-05-18T14:40:28.253Z,99585.80
2018-05-18T14:42:55.932Z,99584.59
2018-05-18T14:45:23.569Z,99588.33
2018-05-18T14:47:51.189Z,99586.09
2018-05-18T14:50:18.760Z,99581.83
2018-05-18T14:52:46.336Z,99584.38
2018-05-18T14:55:13.942Z,99587.95
2018-05-18T14:57:41.504Z,99582.67
2018-05-18T15:00:09.068Z,99590.48
2018-05-18T15:02:36.692Z,99585.23
2018-05-18T15:05:04.264Z,99577.08
2018-05-18T15:07:31.894Z,99574.30
2018-05-18T15:09:59.458Z,99577.75
2018-05-18T15:12:27.230Z,99582.16
2018-05-18T15:14:54.855Z,99580.16
2018-05-18T15:17:22.480Z,99588.58
2018-05-18T15:19:50.113Z,99581.83
2018-05-18T15:22:17.733Z,99583.09
2018-05-18T15:24:45.352Z,99584.16
2018-05-18T15:27:12.974Z,99582.28
2018-05-18T15:29:40.585Z,99586.00
2018-05-18T15:32:08.141Z,99588.95
2018-05-18T15:34:35.757Z,99595.95
2018-05-18T15:37:03.405Z,99605.05
2018-05-18T15:39:30.973Z,99604.66
2018-05-18T15:41:58.541Z,99609.30
2018-05-18T15:44:26.205Z,99604.23
2018-05-18T15:46:53.832Z,99601.41
2018-05-18T15:49:21.415Z,99594.67
2018-05-18T15:51:49.010Z,99585.89
2018-05-18T15:54:16.577Z,99591.66
2018-05-18T15:56:44.128Z,99594.83
2018-05-18T15:59:11.696Z,99590.17
2018-05-18T16:01:39.309Z,99596.79
2018-05-18T16:04:06.981Z,99595.27
2018-05-18T16:06:34.536Z,99593.89
2018-05-18T16:09:02.100Z,99599.13
2018-05-18T16:11:29.680Z,99608.48
2018-05-18T16:13:57.301Z,99612.34
2018-05-18T16:16:24.945Z,99615.62
2018-05-18T16:18:52.570Z,99610.55
2018-05-18T16:21:20.229Z,99615.62
2018-05-18T16:23:47.803Z,99617.00
2018-05-18T16:26:15.479Z,99622.38
2018-05-18T16:28:43.047Z,99635.58
2018-05-18T16:31:10.617Z,99631.44
2018-05-18T16:33:38.293Z,99633.09
2018-05-18T16:36:05.925Z,99637.08
2018-05-18T16:38:33.486Z,99638.13
2018-05-18T16:41:01.052Z,99636.61
2018-05-18T16:43:28.604Z,99631.11
2018-05-18T16:45:56.225Z,99622.31
2018-05-18T16:48:23.782Z,99624.09
2018-05-18T16:50:51.441Z,99625.73
2018-05-18T16:53:19.008Z,99621.33
2018-05-18T16:55:46.644Z,99621.17
2018-05-18T16:58:14.273Z,99619.41
2018-05-18T17:00:41.900Z,99614.30
2018-05-18T17:03:09.467Z,99607.70
2018-05-18T17:05:37.094Z,99609.63
2018-05-18T17:08:04.742Z,99608.62
2018-05-18T17:10:32.308Z,99610.13
2018-05-18T17:12:59.928Z,99614.36
2018-05-18T17:15:27.607Z,99607.22
2018-05-18T17:17:55.160Z,99615.53
2018-05-18T17:20:22.816Z,99610.84
2018-05-18T17:22:50.380Z,99619.08
2018-05-18T17:25:18.002Z,99621.23
2018-05-18T17:27:46.917Z,99632.33
2018-05-18T17:30:14.487Z,99644.22
2018-05-18T17:32:43.643Z,99646.59
2018-05-18T17:35:11.237Z,99652.55
2018-05-18T17:37:38.803Z,99650.03
2018-05-18T17:40:06.436Z,99646.66
2018-05-18T17:42:33.992Z,99647.25
2018-05-18T17:45:01.600Z,99646.86
2018-05-18T17:47:29.165Z,99653.52
2018-05-18T17:49:56.917Z,99648.94
2018-05-18T17:52:24.461Z,99655.28
2018-05-18T17:54:52.088Z,99653.02
2018-05-18T17:57:19.717Z,99644.24
2018-05-18T17:59:47.268Z,99643.09
2018-05-18T18:02:14.893Z,99639.62
2018-05-18T18:04:42.468Z,99637.42
2018-05-18T18:07:10.137Z,99639.74
2018-05-18T18:09:37.688Z,99650.96
2018-05-18T18:12:05.269Z,99650.39
2018-05-18T18:14:32.841Z,99656.81
2018-05-18T18:17:01.286Z,99668.08
2018-05-18T18:19:28.912Z,99673.14
2018-05-18T18:21:56.504Z,99679.47
2018-05-18T18:24:24.185Z,99700.53
2018-05-18T18:26:51.797Z,99704.70
2018-05-18T18:29:19.357Z,99704.98
2018-05-18T18:31:46.920Z,99710.09
2018-05-18T18:34:14.457Z,99717.41
2018-05-18T18:36:42.035Z,99714.80
2018-05-18T18:39:09.578Z,99728.32
2018-05-18T18:41:37.253Z,99730.30
2018-05-18T18:44:04.820Z,99731.84
2018-05-18T18:46:32.393Z,99740.50
2018-05-18T18:48:59.968Z,99749.33
2018-05-18T18:51:27.520Z,99753.16
2018-05-18T18:53:55.088Z,99748.66
2018-05-18T18:56:22.647Z,99736.61
2018-05-18T18:58:50.395Z,99729.66
2018-05-18T19:01:17.886Z,99727.37
2018-05-18T19:03:45.456Z,99729.92
2018-05-18T19:06:13.024Z,99731.92
2018-05-18T19:08:40.649Z,99735.34
2018-05-18T19:11:08.220Z,99738.02
2018-05-18T19:13:35.779Z,99749.66
2018-05-18T19:16:03.470Z,99751.80
2018-05-18T19:18:31.071Z,99754.45
2018-05-18T19:20:58.648Z,99743.41
2018-05-18T19:23:26.298Z,99736.56
2018-05-18T19:25:53.930Z,99730.87
2018-05-18T19:28:21.581Z,99736.67
2018-05-18T19:30:49.215Z,99740.42
2018-05-18T19:33:16.853Z,99731.27
2018-05-18T19:35:44.416Z,99722.91
2018-05-18T19:38:12.036Z,99714.02
2018-05-18T19:40:39.617Z,99704.72
2018-05-18T19:43:07.185Z,99694.23
2018-05-18T19:45:34.817Z,99696.77
2018-05-18T19:48:02.395Z,99695.64
2018-05-18T19:50:30.021Z,99690.31
2018-05-18T19:52:57.654Z,99692.05
2018-05-18T19:55:25.218Z,99684.45
2018-05-18T19:57:52.801Z,99691.38
2018-05-18T20:00:20.373Z,99699.92
2018-05-18T20:02:48.003Z,99708.16
2018-05-18T20:05:15.585Z,99712.95
2018-05-18T20:07:43.257Z,99715.27
2018-05-18T20:10:10.820Z,99721.89
2018-05-18T20:12:38.381Z,99741.03
2018-05-18T20:15:06.013Z,99749.55
2018-05-18T20:17:33.649Z,99771.23
2018-05-18T20:20:01.225Z,99777.02
2018-05-18T20:22:28.784Z,99779.81
2018-05-18T20:24:56.481Z,99789.88
2018-05-18T20:27:24.007Z,99785.53
2018-05-18T20:29:51.575Z,99771.04
2018-05-18T20:32:19.199Z,99768.42
2018-05-18T20:34:46.775Z,99765.63
2018-05-18T20:37:14.357Z,99758.10
2018-05-18T20:39:41.973Z,99766.46
2018-05-18T20:42:09.662Z,99764.98
2018-05-18T20:44:37.296Z,99770.73
2018-05-18T20:47:04.885Z,99773.34
2018-05-18T20:49:32.525Z,99765.59
2018-05-18T20:52:00.096Z,99768.08
2018-05-18T20:54:27.731Z,99761.55
2018-05-18T20:56:55.307Z,99764.68
2018-05-18T20:59:22.993Z,99759.46
2018-05-18T21:01:50.606Z,99755.83
2018-05-18T21:04:18.164Z,99757.30
2018-05-18T21:06:45.743Z,99755.63
2018-05-18T21:09:13.317Z,99758.70
2018-05-18T21:11:40.892Z,99751.37
2018-05-18T21:14:08.456Z,99742.37
2018-05-18T21:16:36.141Z,99738.36
2018-05-18T21:19:03.712Z,99732.98
2018-05-18T21:21:31.338Z,99727.61
2018-05-18T21:23:58.915Z,99723.88
2018-05-18T21:26:26.529Z,99723.19
2018-05-18T21:28:54.112Z,99720.20
2018-05-18T21:31:21.697Z,99716.80
2018-05-18T21:33:49.320Z,99719.22
2018-05-18T21:36:16.937Z,99715.17
2018-05-18T21:38:44.567Z,99716.27
2018-05-18T21:41:12.160Z,99715.88
2018-05-18T21:43:39.785Z,99710.37
2018-05-18T21:46:07.393Z,99711.19
2018-05-18T21:48:34.957Z,99714.28
2018-05-18T21:51:02.586Z,99718.33
2018-05-18T21:53:30.212Z,99722.86
2018-05-18T21:55:57.886Z,99714.42
2018-05-18T21:58:25.597Z,99719.81
2018-05-18T22:00:53.177Z,99722.27
2018-05-18T22:03:20.742Z,99718.08
2018-05-18T22:05:48.384Z,99718.30
2018-05-18T22:08:15.956Z,99718.91
2018-05-18T22:10:43.594Z,99725.94
2018-05-18T22:13:11.153Z,99724.80
2018-05-18T22:15:38.800Z,99727.81
2018-05-18T22:18:06.425Z,99725.53
2018-05-18T22:20:34.002Z,99728.66
2018-05-18T22:23:01.586Z,99724.38
2018-05-18T22:25:29.221Z,99729.82
2018-05-18T22:27:56.857Z,99735.45
2018-05-18T22:30:24.428Z,99739.58
2018-05-18T22:32:52.123Z,99739.22
2018-05-18T22:35:19.762Z,99739.34
2018-05-18T22:37:47.332Z,99732.20
2018-05-18T22:40:14.885Z,99734.53
2018-05-18T22:42:42.445Z,99738.88
2018-05-18T22:45:10.026Z,99733.82
2018-05-18T22:47:37.601Z,99738.25
2018-05-18T22:50:05.176Z,99734.55
2018-05-18T22:52:32.754Z,99739.81
2018-05-18T22:55:00.316Z,99738.19
2018-05-18T22:57:27.958Z,99734.94
2018-05-18T22:59:55.528Z,99733.08
2018-05-18T23:02:23.156Z,99727.64
2018-05-18T23:04:50.781Z,99731.83
2018-05-18T23:07:18.371Z,99728.80
2018-05-18T23:09:45.944Z,99731.86
2018-05-18T23:12:13.509Z,99729.78
2018-05-18T23:14:41.084Z,99734.70
2018-05-18T23:17:08.645Z,99741.45
2018-05-18T23:19:36.342Z,99742.81
2018-05-18T23:22:03.978Z,99747.23
2018-05-18T23:24:31.603Z,99749.27
2018-05-18T23:26:59.180Z,99744.64
2018-05-18T23:29:26.754Z,99748.15
2018-05-18T23:31:54.345Z,99745.19
2018-05-18T23:34:21.926Z,99751.27
2018-05-18T23:36:49.549Z,99749.66
2018-05-18T23:39:17.176Z,99746.21
2018-05-18T23:41:44.827Z,99749.48
2018-05-18T23:44:12.405Z,99749.57
2018-05-18T23:46:39.969Z,99736.05
2018-05-18T23:49:07.549Z,99731.97
2018-05-18T23:51:35.184Z,99735.74
2018-05-18T23:54:02.869Z,99739.94
2018-05-18T23:56:30.440Z,99742.37
2018-05-18T23:58:58.087Z,99742.45
